Rockwood, Maine
Current Conditions -  °F | °C
As of 7:53 AM on Friday 19 Dec 2014 (Local Time) from KBGR Reporting Station
Overcast Overcast  
Wind Chill: 21°   Ceiling: 2100
Heat Index: 28°   Visibility: 10mi
Dew Point: 23°   Wind: 7mph
Humidity: 81%   Direction: 300°WNW
Pressure: 29.86"   Gusts: NA
Location:  45.68°N, 69.74°W
Report Text: KBGR 191253Z 30006KT 10SM BKN021 OVC029 M02/M05 A2986 RMK AO2 SLP113 T10221050
Loading
Personal Weather Stations






























Interactive Weather Map New forecast layout! Learn more

10-Day Weather Forecast

Advertisements
Track Severe Weather on mobile